Time;durP1;ratioP1;P1;durP2;ratioP2;P2;SDS_P1;SDS_P2;PMS_P1;PMS_P2;Temp;Humidity;BMP_temperature;BMP_pressure;BME280_temperature;BME280_humidity;BME280_pressure;Samples;Min_cycle;Max_cycle;Signal;HPM_P1;HPM_P2
2022/08/05 00:01:41;;;;;;;3.70;1.40;;;;;;;;;;5004323;28;20093;-84
2022/08/05 00:04:07;;;;;;;2.28;0.90;;;;;;;;;;5020736;28;20415;-84
2022/08/05 00:06:32;;;;;;;2.65;1.05;;;;;;;;;;5003894;28;20040;-84
2022/08/05 00:08:59;;;;;;;3.05;1.30;;;;;;;;;;5020477;28;20033;-83
2022/08/05 00:11:25;;;;;;;2.45;0.88;;;;;;;;;;5004311;28;20029;-84
2022/08/05 00:13:50;;;;;;;2.30;1.02;;;;;;;;;;5020030;28;20040;-83
2022/08/05 00:16:16;;;;;;;3.20;1.42;;;;;;;;;;5020091;28;20423;-83
2022/08/05 00:18:44;;;;;;;3.58;0.90;;;;;;;;;;5020192;28;20395;-83
2022/08/05 00:21:09;;;;;;;1.75;0.85;;;;;;;;;;5000215;28;20507;-84
2022/08/05 00:23:37;;;;;;;2.10;1.00;;;;;;;;;;5000504;28;20044;-84
2022/08/05 00:26:04;;;;;;;1.98;0.77;;;;;;;;;;5009759;28;20472;-84
2022/08/05 00:28:30;;;;;;;5.80;1.45;;;;;;;;;;5003545;28;20083;-84
2022/08/05 00:30:57;;;;;;;2.10;0.98;;;;;;;;;;5003769;28;20029;-84
2022/08/05 00:33:22;;;;;;;2.78;1.42;;;;;;;;;;5003531;28;20072;-84
2022/08/05 00:35:49;;;;;;;2.10;1.15;;;;;;;;;;5020120;28;20047;-84
2022/08/05 00:38:14;;;;;;;2.58;1.40;;;;;;;;;;5003681;28;20082;-83
2022/08/05 00:40:51;;;;;;;3.22;1.13;;;;;;;;;;5019761;28;20036;-84
2022/08/05 00:43:17;;;;;;;2.42;0.77;;;;;;;;;;5003362;28;20040;-84
2022/08/05 00:45:43;;;;;;;1.98;0.85;;;;;;;;;;5003377;28;20518;-84
2022/08/05 00:48:21;;;;;;;3.03;1.10;;;;;;;;;;5019987;28;20033;-84
2022/08/05 00:50:48;;;;;;;2.10;0.82;;;;;;;;;;5004017;28;20868;-84
2022/08/05 00:53:16;;;;;;;1.60;0.80;;;;;;;;;;5020138;28;20068;-84
2022/08/05 00:55:42;;;;;;;1.77;0.77;;;;;;;;;;5003314;28;20037;-84
2022/08/05 00:58:07;;;;;;;3.45;1.45;;;;;;;;;;5003382;28;20087;-84
2022/08/05 01:00:33;;;;;;;1.65;0.70;;;;;;;;;;5019462;28;20091;-84
2022/08/05 01:02:58;;;;;;;2.67;0.90;;;;;;;;;;4999816;28;20098;-84
2022/08/05 01:05:24;;;;;;;2.47;0.80;;;;;;;;;;4999618;28;20029;-84
2022/08/05 01:07:49;;;;;;;4.25;1.15;;;;;;;;;;4983560;28;20037;-83
2022/08/05 01:10:15;;;;;;;2.83;0.80;;;;;;;;;;4983415;28;20040;-84
2022/08/05 01:12:44;;;;;;;2.13;0.90;;;;;;;;;;5016212;28;20041;-84
2022/08/05 01:15:09;;;;;;;2.65;0.70;;;;;;;;;;4983363;28;20226;-85
2022/08/05 01:17:39;;;;;;;1.77;0.88;;;;;;;;;;4999672;28;20046;-86
2022/08/05 01:20:17;;;;;;;1.95;0.90;;;;;;;;;;5003122;28;20040;-85
2022/08/05 01:22:59;;;;;;;2.85;1.15;;;;;;;;;;5016552;28;20034;-86
2022/08/05 01:25:29;;;;;;;4.18;1.00;;;;;;;;;;5014286;28;20022;-84
2022/08/05 01:28:25;;;;;;;3.55;1.05;;;;;;;;;;5032029;28;20083;-84
2022/08/05 01:30:58;;;;;;;2.78;1.17;;;;;;;;;;5014124;28;20085;-84
2022/08/05 01:33:28;;;;;;;3.42;1.38;;;;;;;;;;4983415;28;20032;-83
2022/08/05 01:35:54;;;;;;;2.55;1.00;;;;;;;;;;4999270;28;20061;-83
2022/08/05 01:38:20;;;;;;;2.08;1.20;;;;;;;;;;4999238;28;20037;-84
2022/08/05 01:40:47;;;;;;;4.05;1.23;;;;;;;;;;4998762;28;20093;-83
2022/08/05 01:43:12;;;;;;;3.22;1.00;;;;;;;;;;4999080;28;20042;-84
2022/08/05 01:45:38;;;;;;;2.47;1.40;;;;;;;;;;4982689;28;20083;-84
2022/08/05 01:48:03;;;;;;;1.80;0.98;;;;;;;;;;4998875;28;20415;-83
2022/08/05 01:50:36;;;;;;;2.55;0.93;;;;;;;;;;5014573;28;20030;-82
2022/08/05 01:53:03;;;;;;;1.95;0.82;;;;;;;;;;4998955;28;20068;-83
2022/08/05 01:55:31;;;;;;;3.40;1.10;;;;;;;;;;4998612;28;20113;-83
2022/08/05 01:57:56;;;;;;;3.33;0.93;;;;;;;;;;4998690;28;20147;-83
2022/08/05 02:00:22;;;;;;;1.58;0.70;;;;;;;;;;5014821;28;20523;-83
2022/08/05 02:02:51;;;;;;;2.25;0.88;;;;;;;;;;5007719;28;20041;-83
2022/08/05 02:05:17;;;;;;;1.23;0.80;;;;;;;;;;4981853;28;20042;-83
2022/08/05 02:07:42;;;;;;;4.22;1.60;;;;;;;;;;4998486;28;20136;-83
2022/08/05 02:10:08;;;;;;;3.38;1.20;;;;;;;;;;4998523;28;20037;-83
2022/08/05 02:12:50;;;;;;;2.15;1.02;;;;;;;;;;4981838;28;20030;-83
2022/08/05 02:15:27;;;;;;;2.40;1.10;;;;;;;;;;4982561;28;20029;-83
2022/08/05 02:18:06;;;;;;;3.17;0.98;;;;;;;;;;4982246;28;20043;-83
2022/08/05 02:20:52;;;;;;;2.95;1.02;;;;;;;;;;5019311;28;20021;-83
2022/08/05 02:23:21;;;;;;;1.33;0.90;;;;;;;;;;5021072;28;20033;-83
2022/08/05 02:25:46;;;;;;;1.50;0.60;;;;;;;;;;5038004;28;20056;-83
2022/08/05 02:28:12;;;;;;;2.08;0.93;;;;;;;;;;5020760;28;20495;-83
2022/08/05 02:30:42;;;;;;;1.50;0.90;;;;;;;;;;5021071;28;20040;-83
2022/08/05 02:33:08;;;;;;;2.80;1.00;;;;;;;;;;5054927;28;20044;-83
2022/08/05 02:35:34;;;;;;;2.67;1.20;;;;;;;;;;5020941;28;20095;-83
2022/08/05 02:37:59;;;;;;;1.98;0.70;;;;;;;;;;5020867;28;20453;-83
2022/08/05 02:40:24;;;;;;;1.35;0.70;;;;;;;;;;5053737;28;20036;-83
2022/08/05 02:42:50;;;;;;;1.70;0.80;;;;;;;;;;5037275;28;20063;-83
2022/08/05 02:45:15;;;;;;;1.50;0.70;;;;;;;;;;5021023;28;20029;-83
2022/08/05 02:47:41;;;;;;;1.73;0.90;;;;;;;;;;5021028;28;20040;-83
2022/08/05 02:50:07;;;;;;;3.05;1.30;;;;;;;;;;5036504;28;20410;-83
2022/08/05 02:52:32;;;;;;;2.45;0.70;;;;;;;;;;5020601;28;20418;-84
2022/08/05 02:54:58;;;;;;;1.90;1.10;;;;;;;;;;5037312;28;20075;-83
2022/08/05 02:57:24;;;;;;;1.63;0.98;;;;;;;;;;5036863;28;20527;-83
2022/08/05 02:59:49;;;;;;;2.40;0.90;;;;;;;;;;5037275;28;20040;-83
2022/08/05 03:02:17;;;;;;;1.42;0.90;;;;;;;;;;5009259;28;20030;-83
2022/08/05 03:04:43;;;;;;;3.00;1.08;;;;;;;;;;5013681;28;20095;-84
2022/08/05 03:07:08;;;;;;;1.77;0.77;;;;;;;;;;5013574;28;20507;-83
2022/08/05 03:09:34;;;;;;;1.65;1.00;;;;;;;;;;5013935;28;20381;-84
2022/08/05 03:12:00;;;;;;;2.72;1.05;;;;;;;;;;5014156;28;20103;-83
2022/08/05 03:14:25;;;;;;;2.20;0.70;;;;;;;;;;5013914;28;20041;-84
2022/08/05 03:16:52;;;;;;;1.95;1.20;;;;;;;;;;5013492;28;20392;-83
2022/08/05 03:19:17;;;;;;;1.65;1.00;;;;;;;;;;5013532;28;20069;-83
2022/08/05 03:21:43;;;;;;;3.15;1.20;;;;;;;;;;5015755;28;20051;-84
2022/08/05 03:24:09;;;;;;;1.75;0.88;;;;;;;;;;5001542;28;20411;-83
2022/08/05 03:26:36;;;;;;;1.50;0.80;;;;;;;;;;5016426;28;20045;-83
2022/08/05 03:29:01;;;;;;;0.95;0.60;;;;;;;;;;5000075;28;20038;-83
2022/08/05 03:31:27;;;;;;;2.35;1.08;;;;;;;;;;5000152;28;20048;-83
2022/08/05 03:33:52;;;;;;;1.95;1.10;;;;;;;;;;5016739;28;20056;-83
2022/08/05 03:36:18;;;;;;;1.77;0.88;;;;;;;;;;4999842;28;20060;-84
2022/08/05 03:38:43;;;;;;;2.22;0.98;;;;;;;;;;5016273;28;20064;-83
2022/08/05 03:41:08;;;;;;;1.55;0.60;;;;;;;;;;4983239;28;20045;-82
2022/08/05 03:43:34;;;;;;;2.05;0.80;;;;;;;;;;5016154;28;20411;-84
2022/08/05 03:46:00;;;;;;;1.67;1.00;;;;;;;;;;5000162;28;20098;-84
2022/08/05 03:48:26;;;;;;;1.73;0.90;;;;;;;;;;5000086;28;20096;-84
2022/08/05 03:51:14;;;;;;;4.30;0.85;;;;;;;;;;4999393;28;20801;-84
2022/08/05 03:53:55;;;;;;;3.33;1.05;;;;;;;;;;4986334;28;20040;-83
2022/08/05 03:56:22;;;;;;;1.15;0.70;;;;;;;;;;5016149;28;20033;-83
2022/08/05 03:58:47;;;;;;;1.65;0.65;;;;;;;;;;4999914;28;20048;-83
2022/08/05 04:01:14;;;;;;;1.40;0.88;;;;;;;;;;4999411;28;20411;-84
2022/08/05 04:03:39;;;;;;;2.33;0.73;;;;;;;;;;4999384;28;20036;-84
2022/08/05 04:06:05;;;;;;;3.17;1.00;;;;;;;;;;4998923;28;20057;-83
2022/08/05 04:08:31;;;;;;;2.70;0.93;;;;;;;;;;4999489;28;20057;-84
2022/08/05 04:10:57;;;;;;;2.30;0.73;;;;;;;;;;4983326;28;20069;-83
2022/08/05 04:13:23;;;;;;;2.33;1.00;;;;;;;;;;4983466;28;20526;-83
2022/08/05 04:15:49;;;;;;;1.55;0.80;;;;;;;;;;4944715;28;1115253;-83
2022/08/05 04:18:14;;;;;;;3.47;1.00;;;;;;;;;;4984699;28;20049;-83
2022/08/05 04:20:40;;;;;;;1.45;0.80;;;;;;;;;;5008029;28;20470;-83
2022/08/05 04:23:05;;;;;;;1.80;1.00;;;;;;;;;;5000726;28;20033;-84
2022/08/05 04:25:32;;;;;;;2.38;1.00;;;;;;;;;;5019880;28;20044;-84
2022/08/05 04:27:57;;;;;;;2.67;0.80;;;;;;;;;;5019926;28;20032;-84
2022/08/05 04:30:25;;;;;;;2.22;1.23;;;;;;;;;;5003890;28;20072;-85
2022/08/05 04:32:51;;;;;;;1.70;0.77;;;;;;;;;;5004161;28;20033;-85
2022/08/05 04:35:17;;;;;;;2.42;1.20;;;;;;;;;;5019216;28;20053;-85
2022/08/05 04:37:43;;;;;;;2.38;0.90;;;;;;;;;;5004230;28;20040;-85
2022/08/05 04:40:10;;;;;;;1.95;1.02;;;;;;;;;;5003820;28;20039;-85
2022/08/05 04:42:35;;;;;;;1.95;1.00;;;;;;;;;;5020149;28;20028;-85
2022/08/05 04:45:01;;;;;;;2.38;1.27;;;;;;;;;;5003613;28;20053;-85
2022/08/05 04:47:27;;;;;;;2.53;1.08;;;;;;;;;;5019815;28;20035;-85
2022/08/05 04:49:54;;;;;;;3.10;1.40;;;;;;;;;;5002999;28;20033;-85
2022/08/05 04:52:20;;;;;;;3.42;1.52;;;;;;;;;;5019998;28;20044;-85
2022/08/05 04:54:46;;;;;;;3.28;1.70;;;;;;;;;;5003839;28;20068;-85
2022/08/05 04:57:11;;;;;;;4.50;1.73;;;;;;;;;;5003578;28;20114;-84
2022/08/05 04:59:39;;;;;;;2.20;1.40;;;;;;;;;;5003169;28;20171;-85
2022/08/05 05:02:05;;;;;;;3.80;1.60;;;;;;;;;;5013216;28;20053;-86
2022/08/05 05:04:32;;;;;;;1.85;1.30;;;;;;;;;;5016510;28;20534;-85
2022/08/05 05:06:58;;;;;;;4.28;1.77;;;;;;;;;;5032636;28;20041;-84
2022/08/05 05:09:25;;;;;;;2.63;1.38;;;;;;;;;;5032513;28;20052;-83
2022/08/05 05:11:51;;;;;;;2.30;1.23;;;;;;;;;;5032365;28;20045;-83
2022/08/05 05:14:18;;;;;;;3.47;1.50;;;;;;;;;;5016002;28;20033;-84
2022/08/05 05:16:43;;;;;;;2.83;1.60;;;;;;;;;;5015611;28;20069;-84
2022/08/05 05:19:09;;;;;;;2.15;1.38;;;;;;;;;;5032100;28;20046;-83
2022/08/05 05:21:35;;;;;;;4.28;1.92;;;;;;;;;;5015022;28;20034;-84
2022/08/05 05:24:00;;;;;;;2.95;1.67;;;;;;;;;;5015752;28;20373;-84
2022/08/05 05:26:26;;;;;;;3.83;1.77;;;;;;;;;;5008135;28;20455;-84
2022/08/05 05:28:51;;;;;;;3.85;1.73;;;;;;;;;;4999410;28;20883;-85
2022/08/05 05:31:18;;;;;;;4.00;1.48;;;;;;;;;;5015117;28;20049;-84
2022/08/05 05:33:44;;;;;;;3.30;1.60;;;;;;;;;;5015577;28;20045;-84
2022/08/05 05:36:09;;;;;;;2.63;1.40;;;;;;;;;;5015541;28;20111;-85
2022/08/05 05:38:35;;;;;;;4.18;2.00;;;;;;;;;;5015407;28;20037;-86
2022/08/05 05:41:01;;;;;;;2.83;1.67;;;;;;;;;;5015595;28;20096;-85
2022/08/05 05:43:27;;;;;;;2.97;1.58;;;;;;;;;;4999284;28;20056;-85
2022/08/05 05:45:52;;;;;;;5.18;2.03;;;;;;;;;;4982232;28;20419;-83
2022/08/05 05:48:18;;;;;;;3.15;1.50;;;;;;;;;;5015286;28;20029;-84
2022/08/05 05:50:43;;;;;;;3.33;1.63;;;;;;;;;;5014560;28;20048;-82
2022/08/05 05:53:14;;;;;;;5.43;2.33;;;;;;;;;;4999647;28;20380;-86
2022/08/05 05:55:40;;;;;;;4.07;1.83;;;;;;;;;;4999984;28;20103;-85
2022/08/05 05:58:05;;;;;;;6.38;2.75;;;;;;;;;;5016019;28;20506;-83
2022/08/05 06:00:31;;;;;;;7.00;3.10;;;;;;;;;;4998711;28;20055;-84
2022/08/05 06:02:56;;;;;;;10.20;2.38;;;;;;;;;;5026394;28;20059;-84
2022/08/05 06:05:21;;;;;;;7.35;3.08;;;;;;;;;;5037735;28;20045;-86
2022/08/05 06:07:48;;;;;;;9.55;4.97;;;;;;;;;;5022449;28;20040;-87
2022/08/05 06:10:15;;;;;;;9.70;5.43;;;;;;;;;;5023229;28;20031;-86
2022/08/05 06:12:41;;;;;;;6.63;5.40;;;;;;;;;;5038535;28;20086;-84
2022/08/05 06:15:07;;;;;;;7.05;4.50;;;;;;;;;;5054798;28;20111;-84
2022/08/05 06:17:34;;;;;;;6.65;3.30;;;;;;;;;;5038057;28;20046;-84
2022/08/05 06:20:00;;;;;;;5.28;2.85;;;;;;;;;;5031161;28;20030;-84
2022/08/05 06:22:27;;;;;;;4.43;2.65;;;;;;;;;;4982499;28;20091;-83
2022/08/05 06:24:53;;;;;;;6.72;2.60;;;;;;;;;;4983270;28;20045;-85
2022/08/05 06:27:18;;;;;;;4.65;3.20;;;;;;;;;;4998560;28;20068;-84
2022/08/05 06:29:45;;;;;;;7.38;3.30;;;;;;;;;;5014661;28;20128;-84
2022/08/05 06:32:10;;;;;;;11.02;3.85;;;;;;;;;;4999131;28;20048;-84
2022/08/05 06:34:36;;;;;;;9.00;3.55;;;;;;;;;;5014671;28;20034;-84
2022/08/05 06:37:01;;;;;;;6.78;3.50;;;;;;;;;;5014484;28;20037;-84
2022/08/05 06:39:27;;;;;;;8.30;2.63;;;;;;;;;;4998435;28;20468;-84
2022/08/05 06:41:58;;;;;;;7.70;2.92;;;;;;;;;;5014846;28;20041;-84
2022/08/05 06:44:23;;;;;;;7.25;3.10;;;;;;;;;;5016913;28;20036;-84
2022/08/05 06:46:49;;;;;;;3.58;1.98;;;;;;;;;;5014402;28;20049;-84
2022/08/05 06:49:14;;;;;;;4.32;2.25;;;;;;;;;;4997447;28;20500;-82
2022/08/05 06:51:40;;;;;;;5.85;2.38;;;;;;;;;;5014038;28;20419;-84
2022/08/05 06:54:06;;;;;;;4.30;2.25;;;;;;;;;;4981728;28;20099;-83
2022/08/05 06:56:31;;;;;;;5.75;2.20;;;;;;;;;;5014031;28;20049;-83
2022/08/05 06:58:57;;;;;;;4.72;1.90;;;;;;;;;;5013479;28;20415;-82
2022/08/05 07:01:23;;;;;;;4.07;2.40;;;;;;;;;;4999106;28;20492;-81
2022/08/05 07:03:49;;;;;;;6.10;2.67;;;;;;;;;;5001494;28;20068;-82
2022/08/05 07:06:15;;;;;;;4.90;2.33;;;;;;;;;;5000938;28;20041;-82
2022/08/05 07:08:41;;;;;;;3.90;2.38;;;;;;;;;;5000833;28;20029;-83
2022/08/05 07:11:07;;;;;;;2.97;2.05;;;;;;;;;;5017646;28;20041;-84
2022/08/05 07:19:01;;;;;;;5.53;2.80;;;;;;;;;;5022580;28;20074;-85
2022/08/05 07:21:28;;;;;;;3.83;2.28;;;;;;;;;;5019480;28;20044;-83
2022/08/05 07:23:56;;;;;;;7.88;2.47;;;;;;;;;;5037901;28;20040;-85
2022/08/05 07:26:22;;;;;;;5.85;2.35;;;;;;;;;;5055153;28;20032;-85
2022/08/05 07:28:49;;;;;;;4.05;2.25;;;;;;;;;;5020755;28;20043;-85
2022/08/05 07:31:15;;;;;;;3.80;2.25;;;;;;;;;;5025991;28;20040;-86
2022/08/05 07:33:41;;;;;;;3.95;2.08;;;;;;;;;;5019423;28;20384;-84
2022/08/05 07:36:07;;;;;;;4.13;1.60;;;;;;;;;;4997996;28;20201;-85
2022/08/05 07:38:33;;;;;;;2.78;1.55;;;;;;;;;;4981099;28;20049;-84
2022/08/05 07:40:59;;;;;;;4.50;1.80;;;;;;;;;;4981226;28;20045;-84
2022/08/05 07:43:25;;;;;;;8.02;1.60;;;;;;;;;;4981868;28;20044;-83
2022/08/05 07:45:50;;;;;;;2.58;1.23;;;;;;;;;;5013975;28;20076;-85
2022/08/05 07:48:19;;;;;;;5.30;1.52;;;;;;;;;;4981118;28;20034;-83
2022/08/05 07:50:44;;;;;;;3.63;1.15;;;;;;;;;;4981382;28;20424;-83
2022/08/05 07:53:09;;;;;;;3.03;0.82;;;;;;;;;;4981101;28;20037;-83
2022/08/05 07:55:35;;;;;;;4.53;1.35;;;;;;;;;;4997219;28;20045;-84
2022/08/05 07:58:02;;;;;;;4.18;1.15;;;;;;;;;;4979608;28;20454;-83
2022/08/05 08:00:28;;;;;;;5.80;1.42;;;;;;;;;;4981515;28;20055;-83
2022/08/05 08:02:53;;;;;;;6.90;1.10;;;;;;;;;;5007800;28;20044;-83
2022/08/05 08:05:19;;;;;;;1.70;0.90;;;;;;;;;;5019957;28;20394;-85
2022/08/05 08:07:46;;;;;;;1.52;0.60;;;;;;;;;;5036048;28;20383;-85
2022/08/05 08:10:12;;;;;;;2.28;0.75;;;;;;;;;;5021730;28;20139;-84
2022/08/05 08:12:37;;;;;;;2.35;0.90;;;;;;;;;;5023055;28;20127;-84
2022/08/05 08:15:03;;;;;;;4.90;0.80;;;;;;;;;;5040174;28;20406;-84
2022/08/05 08:17:30;;;;;;;1.83;0.82;;;;;;;;;;5023521;28;20174;-84
2022/08/05 08:19:56;;;;;;;3.22;1.02;;;;;;;;;;5039628;28;20040;-83
2022/08/05 08:22:26;;;;;;;2.05;0.90;;;;;;;;;;5039803;28;20059;-83
2022/08/05 08:24:51;;;;;;;3.47;1.10;;;;;;;;;;5023721;28;20032;-83
2022/08/05 08:27:17;;;;;;;2.83;0.82;;;;;;;;;;5016780;28;20045;-83
2022/08/05 08:29:42;;;;;;;3.50;1.10;;;;;;;;;;5000125;28;20064;-83
2022/08/05 08:32:08;;;;;;;3.05;0.70;;;;;;;;;;4984134;28;20458;-83
2022/08/05 08:34:33;;;;;;;3.72;0.90;;;;;;;;;;4984387;28;20044;-84
2022/08/05 08:37:00;;;;;;;2.55;0.77;;;;;;;;;;5000348;28;20407;-85
2022/08/05 08:39:26;;;;;;;2.58;0.80;;;;;;;;;;4984761;28;20034;-85
2022/08/05 08:41:53;;;;;;;4.50;1.08;;;;;;;;;;4984790;28;20048;-85
2022/08/05 08:44:20;;;;;;;1.75;0.80;;;;;;;;;;4984638;28;20052;-84
2022/08/05 08:46:46;;;;;;;1.73;0.57;;;;;;;;;;5000089;28;20091;-85
2022/08/05 08:49:15;;;;;;;1.70;0.93;;;;;;;;;;4999994;28;20037;-83
2022/08/05 08:51:42;;;;;;;3.53;0.80;;;;;;;;;;4984866;28;20086;-83
2022/08/05 08:54:07;;;;;;;3.00;0.90;;;;;;;;;;4983571;28;20029;-84
2022/08/05 08:56:33;;;;;;;2.17;0.90;;;;;;;;;;4999714;28;20041;-84
2022/08/05 08:58:59;;;;;;;2.22;1.13;;;;;;;;;;4999854;28;20080;-85
2022/08/05 09:01:25;;;;;;;3.38;0.93;;;;;;;;;;5001396;28;20407;-87
2022/08/05 09:03:52;;;;;;;3.20;1.00;;;;;;;;;;5004557;28;20032;-86
2022/08/05 09:06:18;;;;;;;2.08;0.75;;;;;;;;;;5003747;28;20063;-85
2022/08/05 09:08:43;;;;;;;3.95;1.20;;;;;;;;;;5003406;28;20056;-84
2022/08/05 09:11:11;;;;;;;2.15;0.75;;;;;;;;;;5004738;28;20044;-85
2022/08/05 09:13:38;;;;;;;3.00;1.10;;;;;;;;;;5004762;28;20514;-85
2022/08/05 09:16:07;;;;;;;3.53;0.80;;;;;;;;;;5019580;28;20045;-86
2022/08/05 09:18:32;;;;;;;2.63;0.70;;;;;;;;;;5003392;28;20033;-84
2022/08/05 09:20:58;;;;;;;3.55;0.90;;;;;;;;;;5013762;28;20096;-83
2022/08/05 09:23:23;;;;;;;3.35;0.63;;;;;;;;;;4998983;28;20037;-83
2022/08/05 09:25:53;;;;;;;3.60;1.25;;;;;;;;;;5023047;28;20037;-83
2022/08/05 09:28:23;;;;;;;4.85;1.63;;;;;;;;;;5002814;28;20560;-83
2022/08/05 09:30:55;;;;;;;2.35;1.02;;;;;;;;;;5002913;28;20045;-84
2022/08/05 09:33:21;;;;;;;5.97;0.95;;;;;;;;;;5018744;28;20537;-83
2022/08/05 09:35:57;;;;;;;1.83;0.80;;;;;;;;;;5002323;28;20077;-83
2022/08/05 09:38:23;;;;;;;1.98;0.90;;;;;;;;;;5002180;28;20514;-83
2022/08/05 09:40:50;;;;;;;2.40;0.65;;;;;;;;;;5002507;28;20124;-84
2022/08/05 09:43:26;;;;;;;2.25;0.60;;;;;;;;;;5018951;28;20036;-83
2022/08/05 09:45:51;;;;;;;3.25;1.15;;;;;;;;;;5002532;28;20403;-84
2022/08/05 09:48:24;;;;;;;2.15;0.70;;;;;;;;;;5002167;28;20029;-84
2022/08/05 09:50:50;;;;;;;2.28;1.00;;;;;;;;;;5002750;28;20036;-84
2022/08/05 09:53:16;;;;;;;2.92;0.90;;;;;;;;;;5002160;28;20029;-84
2022/08/05 09:55:44;;;;;;;2.08;0.70;;;;;;;;;;5018651;28;20458;-85
2022/08/05 09:58:10;;;;;;;1.80;0.50;;;;;;;;;;5002034;28;20040;-84
2022/08/05 10:00:36;;;;;;;3.80;0.77;;;;;;;;;;5002226;28;20048;-84
2022/08/05 10:03:07;;;;;;;2.17;1.08;;;;;;;;;;5004240;28;20376;-85
2022/08/05 10:05:34;;;;;;;2.70;0.77;;;;;;;;;;5018382;28;20040;-85
2022/08/05 10:08:03;;;;;;;3.88;1.33;;;;;;;;;;5018213;28;20627;-86
2022/08/05 10:10:44;;;;;;;1.95;1.00;;;;;;;;;;5019043;28;20041;-85
2022/08/05 10:13:10;;;;;;;2.63;1.30;;;;;;;;;;5035710;28;20040;-87
2022/08/05 10:15:39;;;;;;;2.35;0.90;;;;;;;;;;5018406;28;20033;-84
2022/08/05 10:18:11;;;;;;;4.45;0.90;;;;;;;;;;5002285;28;20040;-86
2022/08/05 10:20:43;;;;;;;4.65;1.23;;;;;;;;;;5029191;28;20033;-87
2022/08/05 10:23:09;;;;;;;;;;;;;;;;;;5038923;28;20128;-86
2022/08/05 10:25:34;;;;;;;4.68;1.17;;;;;;;;;;5029000;28;20014;-90
2022/08/05 10:28:01;;;;;;;3.65;1.25;;;;;;;;;;4998917;28;20033;-90
2022/08/05 10:30:28;;;;;;;5.07;1.50;;;;;;;;;;4983237;28;20041;-88
2022/08/05 10:32:54;;;;;;;9.02;3.13;;;;;;;;;;4998573;28;20102;-86
2022/08/05 10:35:19;;;;;;;5.90;3.40;;;;;;;;;;5015087;28;20044;-87
2022/08/05 10:37:46;;;;;;;7.32;2.80;;;;;;;;;;4998845;28;20030;-87
2022/08/05 10:40:20;;;;;;;7.20;2.75;;;;;;;;;;4998646;28;20044;-88
2022/08/05 10:42:49;;;;;;;6.40;2.95;;;;;;;;;;4982704;28;20072;-85
2022/08/05 10:45:15;;;;;;;5.07;2.40;;;;;;;;;;4998366;28;20127;-83
2022/08/05 10:47:43;;;;;;;6.60;2.22;;;;;;;;;;5014244;28;20071;-83
2022/08/05 10:50:13;;;;;;;4.78;1.95;;;;;;;;;;4997738;28;20030;-84
2022/08/05 10:52:52;;;;;;;5.95;2.25;;;;;;;;;;4999007;28;20029;-83
2022/08/05 10:55:19;;;;;;;5.63;2.33;;;;;;;;;;5015612;28;20041;-83
2022/08/05 10:57:45;;;;;;;6.78;2.50;;;;;;;;;;4997728;28;20059;-83
2022/08/05 11:00:17;;;;;;;3.78;2.33;;;;;;;;;;4981985;28;20460;-85
2022/08/05 11:03:13;;;;;;;7.63;3.05;;;;;;;;;;5029264;28;20119;-85
2022/08/05 11:05:39;;;;;;;5.47;2.20;;;;;;;;;;5049439;28;20076;-84
2022/08/05 11:08:08;;;;;;;7.28;2.15;;;;;;;;;;5037443;28;20071;-84
2022/08/05 11:10:36;;;;;;;4.85;2.47;;;;;;;;;;5037925;28;20055;-85
2022/08/05 11:13:03;;;;;;;6.35;3.20;;;;;;;;;;5037493;28;20033;-86
2022/08/05 11:15:33;;;;;;;4.55;2.20;;;;;;;;;;5037705;28;20071;-85
2022/08/05 11:18:06;;;;;;;6.47;2.75;;;;;;;;;;5037425;28;20037;-85
2022/08/05 11:20:36;;;;;;;3.88;2.47;;;;;;;;;;5026715;28;20053;-87
2022/08/05 11:23:24;;;;;;;4.38;2.97;;;;;;;;;;5034351;28;20040;-85
2022/08/05 11:26:21;;;;;;;4.28;2.25;;;;;;;;;;5034305;28;20106;-86
2022/08/05 11:28:51;;;;;;;7.55;2.33;;;;;;;;;;5019440;28;20119;-86
2022/08/05 11:31:17;;;;;;;3.95;2.10;;;;;;;;;;5017841;28;20083;-87
2022/08/05 11:33:50;;;;;;;6.60;3.22;;;;;;;;;;5017632;28;20033;-85
2022/08/05 11:36:19;;;;;;;4.50;2.90;;;;;;;;;;5034280;28;20552;-87
2022/08/05 11:38:47;;;;;;;7.30;2.85;;;;;;;;;;5001503;28;20506;-86
2022/08/05 11:41:14;;;;;;;3.88;2.72;;;;;;;;;;5034103;28;20037;-87
2022/08/05 11:43:52;;;;;;;4.95;2.22;;;;;;;;;;5034408;28;20032;-86
2022/08/05 11:46:24;;;;;;;7.85;2.55;;;;;;;;;;5006005;28;20040;-85
2022/08/05 11:48:51;;;;;;;4.95;2.15;;;;;;;;;;5020837;28;20078;-87
2022/08/05 11:51:16;;;;;;;9.40;2.65;;;;;;;;;;5019801;28;20122;-87
2022/08/05 11:53:42;;;;;;;5.80;3.10;;;;;;;;;;5020177;28;20491;-86
2022/08/05 11:56:07;;;;;;;5.63;2.60;;;;;;;;;;5021190;28;20063;-85
2022/08/05 11:58:38;;;;;;;5.20;2.58;;;;;;;;;;5021218;28;20082;-87
2022/08/05 12:01:08;;;;;;;6.28;2.30;;;;;;;;;;5021763;28;20029;-87
2022/08/05 12:03:51;;;;;;;4.13;2.22;;;;;;;;;;5019567;28;20103;-85
2022/08/05 12:06:17;;;;;;;6.20;2.72;;;;;;;;;;5003136;28;20036;-86
2022/08/05 12:08:46;;;;;;;5.97;2.53;;;;;;;;;;5019233;28;20029;-86
2022/08/05 12:11:30;;;;;;;7.10;3.17;;;;;;;;;;5018990;28;20032;-86
2022/08/05 12:13:57;;;;;;;4.95;1.75;;;;;;;;;;5019406;28;20033;-91
2022/08/05 12:16:24;;;;;;;12.50;3.33;;;;;;;;;;5020883;28;20118;-93
2022/08/05 12:18:50;;;;;;;6.13;3.80;;;;;;;;;;5004796;28;20070;-90
2022/08/05 12:21:17;;;;;;;5.25;1.92;;;;;;;;;;5020933;28;20149;-94
2022/08/05 12:23:59;;;;;;;3.63;2.13;;;;;;;;;;5002222;28;20037;-92
2022/08/05 12:26:29;;;;;;;4.93;2.30;;;;;;;;;;5027284;28;20037;-92
2022/08/05 12:28:55;;;;;;;5.57;1.70;;;;;;;;;;5016208;28;20041;-86
2022/08/05 12:31:21;;;;;;;3.70;1.95;;;;;;;;;;5017235;28;20527;-91
2022/08/05 12:33:46;;;;;;;4.35;1.50;;;;;;;;;;5011291;28;20047;-90
2022/08/05 12:36:13;;;;;;;7.10;2.92;;;;;;;;;;5004507;28;20029;-86
2022/08/05 12:38:38;;;;;;;4.85;1.92;;;;;;;;;;4987937;28;20034;-87
2022/08/05 12:41:08;;;;;;;4.78;1.90;;;;;;;;;;5017344;28;20033;-88
2022/08/05 12:43:34;;;;;;;3.40;1.92;;;;;;;;;;5001626;28;20076;-92
2022/08/05 12:45:59;;;;;;;4.25;2.00;;;;;;;;;;5001286;28;20128;-87
2022/08/05 12:48:25;;;;;;;3.30;1.75;;;;;;;;;;5000424;28;20033;-87
2022/08/05 12:51:09;;;;;;;4.20;2.10;;;;;;;;;;4999674;28;20045;-88
2022/08/05 12:53:43;;;;;;;5.05;1.60;;;;;;;;;;5016260;28;20532;-88
2022/08/05 12:56:16;;;;;;;5.75;1.70;;;;;;;;;;4983960;28;20103;-87
2022/08/05 12:58:43;;;;;;;2.70;1.58;;;;;;;;;;4996535;28;20429;-88
2022/08/05 13:01:10;;;;;;;2.78;1.45;;;;;;;;;;5019696;28;20037;-88
2022/08/05 13:03:37;;;;;;;3.67;1.65;;;;;;;;;;5003487;28;20076;-88
2022/08/05 13:06:06;;;;;;;4.20;1.73;;;;;;;;;;5003671;28;20029;-88
2022/08/05 13:08:31;;;;;;;3.38;1.83;;;;;;;;;;5020312;28;20040;-88
2022/08/05 13:11:00;;;;;;;7.13;2.25;;;;;;;;;;5000387;28;20563;-86
2022/08/05 13:13:26;;;;;;;5.10;2.78;;;;;;;;;;5016821;28;20037;-86
2022/08/05 13:15:53;;;;;;;5.05;2.83;;;;;;;;;;5000083;28;20037;-86
2022/08/05 13:18:20;;;;;;;7.22;2.35;;;;;;;;;;5033440;28;20067;-86
2022/08/05 13:20:47;;;;;;;3.40;1.73;;;;;;;;;;5003143;28;20083;-87
2022/08/05 13:23:13;;;;;;;3.67;1.70;;;;;;;;;;5003407;28;20090;-85
2022/08/05 13:25:39;;;;;;;4.05;1.52;;;;;;;;;;4997243;28;20033;-86
2022/08/05 13:28:06;;;;;;;2.30;1.42;;;;;;;;;;5000160;28;20069;-86
2022/08/05 13:30:32;;;;;;;3.83;1.65;;;;;;;;;;4999980;28;20072;-86
2022/08/05 13:32:59;;;;;;;3.75;1.20;;;;;;;;;;4999954;28;20232;-86
2022/08/05 13:35:25;;;;;;;2.20;0.80;;;;;;;;;;4999774;28;20480;-86
2022/08/05 13:37:51;;;;;;;3.30;1.02;;;;;;;;;;4983736;28;20041;-86
2022/08/05 13:40:17;;;;;;;3.30;1.42;;;;;;;;;;4999781;28;20038;-86
2022/08/05 13:42:44;;;;;;;2.33;0.70;;;;;;;;;;5000972;28;20063;-86
2022/08/05 13:45:10;;;;;;;2.00;0.88;;;;;;;;;;5016408;28;20038;-86
2022/08/05 13:47:39;;;;;;;3.03;0.68;;;;;;;;;;4997397;28;20037;-86
2022/08/05 13:50:05;;;;;;;3.05;0.93;;;;;;;;;;5017858;28;20496;-85
2022/08/05 13:52:30;;;;;;;2.78;0.80;;;;;;;;;;4999297;28;20095;-85
2022/08/05 13:54:56;;;;;;;4.07;0.90;;;;;;;;;;4983310;28;20495;-86
2022/08/05 13:57:23;;;;;;;2.97;0.73;;;;;;;;;;4999022;28;20095;-87
2022/08/05 13:59:48;;;;;;;3.20;0.50;;;;;;;;;;5015447;28;20033;-86
2022/08/05 14:02:13;;;;;;;4.50;1.25;;;;;;;;;;5016216;28;20042;-86
2022/08/05 14:07:37;;;;;;;1.60;0.60;;;;;;;;;;5023032;28;20044;-85
2022/08/05 14:10:13;;;;;;;1.50;0.50;;;;;;;;;;5018787;28;20037;-86
2022/08/05 14:12:39;;;;;;;3.33;1.10;;;;;;;;;;5003208;28;20518;-85
2022/08/05 14:15:05;;;;;;;2.88;0.75;;;;;;;;;;5001578;28;20037;-84
2022/08/05 14:17:31;;;;;;;2.17;0.60;;;;;;;;;;5001519;28;20441;-85
2022/08/05 14:19:57;;;;;;;3.75;0.60;;;;;;;;;;5014018;28;20128;-84
2022/08/05 14:22:22;;;;;;;1.95;0.60;;;;;;;;;;4982007;28;20143;-84
2022/08/05 14:24:48;;;;;;;1.98;0.50;;;;;;;;;;4981494;28;20073;-84
2022/08/05 14:27:13;;;;;;;2.13;0.70;;;;;;;;;;4996815;28;20039;-83
2022/08/05 14:29:39;;;;;;;1.80;0.50;;;;;;;;;;4997911;28;20037;-85
2022/08/05 14:32:04;;;;;;;2.75;0.55;;;;;;;;;;4997976;28;20112;-86
2022/08/05 14:34:32;;;;;;;1.40;0.60;;;;;;;;;;4982059;28;20385;-85
2022/08/05 14:36:58;;;;;;;2.40;0.60;;;;;;;;;;4996980;28;20037;-83
2022/08/05 14:39:24;;;;;;;1.90;0.65;;;;;;;;;;4995319;28;20415;-85
2022/08/05 14:41:50;;;;;;;1.38;0.60;;;;;;;;;;4999852;28;20033;-85
2022/08/05 14:44:15;;;;;;;2.42;0.57;;;;;;;;;;4997564;28;20045;-87
2022/08/05 14:46:40;;;;;;;2.97;0.80;;;;;;;;;;4982252;28;20040;-86
2022/08/05 14:49:06;;;;;;;6.20;2.45;;;;;;;;;;5014262;28;20036;-89
2022/08/05 14:51:32;;;;;;;1.70;0.47;;;;;;;;;;4981310;28;20033;-84
2022/08/05 14:53:58;;;;;;;2.10;0.43;;;;;;;;;;4998303;28;20530;-89